sensor_id;sensor_type;location;lat;lon;timestamp;pressure;altitude;pressure_sealevel;temperature;humidity
6680;BME280;3376;42.664;23.346;2023-05-01T00:01:55;94511.22;;;12.39;95.84
6680;BME280;3376;42.664;23.346;2023-05-01T00:04:21;94512.53;;;12.29;96.65
6680;BME280;3376;42.664;23.346;2023-05-01T00:06:48;94511.44;;;12.17;98.03
6680;BME280;3376;42.664;23.346;2023-05-01T00:09:15;94498.72;;;12.07;98.24
6680;BME280;3376;42.664;23.346;2023-05-01T00:11:42;94511.34;;;12.10;98.48
6680;BME280;3376;42.664;23.346;2023-05-01T00:14:10;94515.19;;;12.14;98.93
6680;BME280;3376;42.664;23.346;2023-05-01T00:16:38;94515.94;;;12.08;98.82
6680;BME280;3376;42.664;23.346;2023-05-01T00:19:05;94518.53;;;12.08;98.98
6680;BME280;3376;42.664;23.346;2023-05-01T00:21:32;94522.00;;;12.15;98.13
6680;BME280;3376;42.664;23.346;2023-05-01T00:23:59;94392.59;;;11.20;98.62
6680;BME280;3376;42.664;23.346;2023-05-01T00:26:26;94524.50;;;12.09;98.28
6680;BME280;3376;42.664;23.346;2023-05-01T00:28:55;94521.72;;;12.10;98.45
6680;BME280;3376;42.664;23.346;2023-05-01T00:31:23;94403.13;;;11.33;98.98
6680;BME280;3376;42.664;23.346;2023-05-01T00:33:51;94412.69;;;11.32;99.32
6680;BME280;3376;42.664;23.346;2023-05-01T00:36:18;94522.09;;;12.07;99.70
6680;BME280;3376;42.664;23.346;2023-05-01T00:38:45;94521.22;;;12.00;99.96
6680;BME280;3376;42.664;23.346;2023-05-01T00:41:11;94528.69;;;12.03;100.00
6680;BME280;3376;42.664;23.346;2023-05-01T00:43:38;94526.53;;;11.92;100.00
6680;BME280;3376;42.664;23.346;2023-05-01T00:46:06;94527.69;;;11.90;100.00
6680;BME280;3376;42.664;23.346;2023-05-01T00:48:34;94535.66;;;11.88;100.00
6680;BME280;3376;42.664;23.346;2023-05-01T00:51:04;94537.50;;;11.88;100.00
6680;BME280;3376;42.664;23.346;2023-05-01T00:53:32;94507.00;;;11.75;100.00
6680;BME280;3376;42.664;23.346;2023-05-01T00:55:59;94533.72;;;11.90;100.00
6680;BME280;3376;42.664;23.346;2023-05-01T00:58:26;94534.63;;;11.82;100.00
6680;BME280;3376;42.664;23.346;2023-05-01T01:00:53;94537.22;;;11.82;100.00
6680;BME280;3376;42.664;23.346;2023-05-01T01:03:20;94540.09;;;11.73;100.00
6680;BME280;3376;42.664;23.346;2023-05-01T01:05:50;94542.00;;;11.64;100.00
6680;BME280;3376;42.664;23.346;2023-05-01T01:08:30;94542.25;;;11.55;100.00
6680;BME280;3376;42.664;23.346;2023-05-01T01:11:07;94537.25;;;11.53;100.00
6680;BME280;3376;42.664;23.346;2023-05-01T01:13:41;94529.81;;;11.50;100.00
6680;BME280;3376;42.664;23.346;2023-05-01T01:16:15;94545.81;;;11.54;100.00
6680;BME280;3376;42.664;23.346;2023-05-01T01:18:50;94539.72;;;11.47;100.00
6680;BME280;3376;42.664;23.346;2023-05-01T01:21:22;94547.53;;;11.47;100.00
6680;BME280;3376;42.664;23.346;2023-05-01T01:24:16;94555.03;;;11.56;100.00
6680;BME280;3376;42.664;23.346;2023-05-01T01:27:05;94431.97;;;10.80;100.00
6680;BME280;3376;42.664;23.346;2023-05-01T01:29:55;94561.03;;;11.57;100.00
6680;BME280;3376;42.664;23.346;2023-05-01T01:32:55;94557.56;;;11.50;100.00
6680;BME280;3376;42.664;23.346;2023-05-01T01:35:27;94556.19;;;11.54;100.00
6680;BME280;3376;42.664;23.346;2023-05-01T01:38:00;94559.69;;;11.46;100.00
6680;BME280;3376;42.664;23.346;2023-05-01T01:40:32;94443.41;;;10.71;100.00
6680;BME280;3376;42.664;23.346;2023-05-01T01:43:02;94560.41;;;11.40;100.00
6680;BME280;3376;42.664;23.346;2023-05-01T01:45:35;94554.88;;;11.29;100.00
6680;BME280;3376;42.664;23.346;2023-05-01T01:48:04;94368.28;;;10.04;100.00
6680;BME280;3376;42.664;23.346;2023-05-01T01:50:35;94536.19;;;11.19;100.00
6680;BME280;3376;42.664;23.346;2023-05-01T01:53:04;94557.38;;;11.37;100.00
6680;BME280;3376;42.664;23.346;2023-05-01T01:55:33;94543.22;;;11.25;100.00
6680;BME280;3376;42.664;23.346;2023-05-01T01:58:02;94533.03;;;11.23;100.00
6680;BME280;3376;42.664;23.346;2023-05-01T02:00:29;94548.81;;;11.36;100.00
6680;BME280;3376;42.664;23.346;2023-05-01T02:02:57;94549.22;;;11.40;100.00
6680;BME280;3376;42.664;23.346;2023-05-01T02:05:25;94544.13;;;11.32;100.00
6680;BME280;3376;42.664;23.346;2023-05-01T02:07:55;94561.56;;;11.23;100.00
6680;BME280;3376;42.664;23.346;2023-05-01T02:10:23;94538.56;;;11.06;100.00
6680;BME280;3376;42.664;23.346;2023-05-01T02:12:53;94549.75;;;11.06;100.00
6680;BME280;3376;42.664;23.346;2023-05-01T02:15:21;94540.63;;;10.96;100.00
6680;BME280;3376;42.664;23.346;2023-05-01T02:17:50;94510.03;;;10.77;100.00
6680;BME280;3376;42.664;23.346;2023-05-01T02:20:18;94548.22;;;10.83;100.00
6680;BME280;3376;42.664;23.346;2023-05-01T02:22:46;94551.50;;;10.77;100.00
6680;BME280;3376;42.664;23.346;2023-05-01T02:25:15;94543.91;;;10.75;100.00
6680;BME280;3376;42.664;23.346;2023-05-01T02:27:46;94543.53;;;10.78;100.00
6680;BME280;3376;42.664;23.346;2023-05-01T02:30:13;94547.56;;;10.81;100.00
6680;BME280;3376;42.664;23.346;2023-05-01T02:32:41;94551.28;;;10.63;100.00
6680;BME280;3376;42.664;23.346;2023-05-01T02:35:08;94544.16;;;10.65;100.00
6680;BME280;3376;42.664;23.346;2023-05-01T02:37:35;94531.19;;;10.65;100.00
6680;BME280;3376;42.664;23.346;2023-05-01T02:40:03;94535.66;;;10.72;100.00
6680;BME280;3376;42.664;23.346;2023-05-01T02:42:31;94546.66;;;10.74;100.00
6680;BME280;3376;42.664;23.346;2023-05-01T02:45:02;94546.47;;;10.60;100.00
6680;BME280;3376;42.664;23.346;2023-05-01T02:47:34;94542.78;;;10.55;100.00
6680;BME280;3376;42.664;23.346;2023-05-01T02:50:03;94543.59;;;10.55;100.00
6680;BME280;3376;42.664;23.346;2023-05-01T02:52:31;94551.03;;;10.36;100.00
6680;BME280;3376;42.664;23.346;2023-05-01T02:54:58;94546.53;;;9.99;100.00
6680;BME280;3376;42.664;23.346;2023-05-01T02:57:25;94403.28;;;8.94;100.00
6680;BME280;3376;42.664;23.346;2023-05-01T02:59:53;94558.53;;;9.70;100.00
6680;BME280;3376;42.664;23.346;2023-05-01T03:02:20;94558.06;;;9.66;100.00
6680;BME280;3376;42.664;23.346;2023-05-01T03:04:47;94556.59;;;9.72;100.00
6680;BME280;3376;42.664;23.346;2023-05-01T03:07:14;94561.41;;;9.75;100.00
6680;BME280;3376;42.664;23.346;2023-05-01T03:09:41;94530.31;;;9.52;100.00
6680;BME280;3376;42.664;23.346;2023-05-01T03:12:07;94551.44;;;9.64;100.00
6680;BME280;3376;42.664;23.346;2023-05-01T03:14:34;94561.59;;;9.65;100.00
6680;BME280;3376;42.664;23.346;2023-05-01T03:17:02;94564.19;;;9.65;100.00
6680;BME280;3376;42.664;23.346;2023-05-01T03:19:29;94568.22;;;9.68;100.00
6680;BME280;3376;42.664;23.346;2023-05-01T03:21:56;94569.03;;;9.68;100.00
6680;BME280;3376;42.664;23.346;2023-05-01T03:24:23;94565.47;;;9.69;100.00
6680;BME280;3376;42.664;23.346;2023-05-01T03:26:50;94572.09;;;9.72;100.00
6680;BME280;3376;42.664;23.346;2023-05-01T03:29:17;94576.06;;;9.82;100.00
6680;BME280;3376;42.664;23.346;2023-05-01T03:31:43;94578.63;;;9.90;100.00
6680;BME280;3376;42.664;23.346;2023-05-01T03:34:11;94580.50;;;10.04;100.00
6680;BME280;3376;42.664;23.346;2023-05-01T03:36:38;94581.13;;;10.14;100.00
6680;BME280;3376;42.664;23.346;2023-05-01T03:39:05;94578.00;;;10.19;100.00
6680;BME280;3376;42.664;23.346;2023-05-01T03:41:32;94564.06;;;10.20;100.00
6680;BME280;3376;42.664;23.346;2023-05-01T03:43:59;94583.56;;;10.38;100.00
6680;BME280;3376;42.664;23.346;2023-05-01T03:46:26;94585.16;;;10.39;100.00
6680;BME280;3376;42.664;23.346;2023-05-01T03:48:53;94581.88;;;10.23;100.00
6680;BME280;3376;42.664;23.346;2023-05-01T03:51:21;94587.72;;;10.17;100.00
6680;BME280;3376;42.664;23.346;2023-05-01T03:53:47;94594.72;;;10.08;100.00
6680;BME280;3376;42.664;23.346;2023-05-01T03:56:15;94600.03;;;10.07;100.00
6680;BME280;3376;42.664;23.346;2023-05-01T03:58:42;94603.44;;;10.07;100.00
6680;BME280;3376;42.664;23.346;2023-05-01T04:01:09;94615.34;;;9.94;100.00
6680;BME280;3376;42.664;23.346;2023-05-01T04:03:35;94611.88;;;10.01;100.00
6680;BME280;3376;42.664;23.346;2023-05-01T04:06:02;94610.56;;;10.05;100.00
6680;BME280;3376;42.664;23.346;2023-05-01T04:08:31;94590.09;;;9.96;100.00
6680;BME280;3376;42.664;23.346;2023-05-01T04:10:57;94613.50;;;10.10;100.00
6680;BME280;3376;42.664;23.346;2023-05-01T04:13:24;94608.44;;;10.17;100.00
6680;BME280;3376;42.664;23.346;2023-05-01T04:15:51;94600.50;;;10.18;100.00
6680;BME280;3376;42.664;23.346;2023-05-01T04:18:19;94611.78;;;10.25;100.00
6680;BME280;3376;42.664;23.346;2023-05-01T04:20:46;94594.22;;;10.35;100.00
6680;BME280;3376;42.664;23.346;2023-05-01T04:23:12;94599.66;;;10.48;100.00
6680;BME280;3376;42.664;23.346;2023-05-01T04:25:41;94609.88;;;10.64;100.00
6680;BME280;3376;42.664;23.346;2023-05-01T04:28:09;94605.97;;;10.68;100.00
6680;BME280;3376;42.664;23.346;2023-05-01T04:30:36;94591.41;;;10.68;100.00
6680;BME280;3376;42.664;23.346;2023-05-01T04:33:03;94611.38;;;10.82;100.00
6680;BME280;3376;42.664;23.346;2023-05-01T04:35:35;94606.06;;;10.98;100.00
6680;BME280;3376;42.664;23.346;2023-05-01T04:38:03;94605.00;;;11.07;100.00
6680;BME280;3376;42.664;23.346;2023-05-01T04:40:30;94616.47;;;11.27;100.00
6680;BME280;3376;42.664;23.346;2023-05-01T04:42:58;94616.41;;;11.49;100.00
6680;BME280;3376;42.664;23.346;2023-05-01T04:45:25;94610.94;;;11.59;100.00
6680;BME280;3376;42.664;23.346;2023-05-01T04:47:52;94616.78;;;11.90;100.00
6680;BME280;3376;42.664;23.346;2023-05-01T04:50:19;94612.09;;;12.00;100.00
6680;BME280;3376;42.664;23.346;2023-05-01T04:52:46;94623.00;;;12.10;100.00
6680;BME280;3376;42.664;23.346;2023-05-01T04:55:12;94608.03;;;12.12;100.00
6680;BME280;3376;42.664;23.346;2023-05-01T04:57:39;94623.31;;;12.36;100.00
6680;BME280;3376;42.664;23.346;2023-05-01T05:00:08;94622.47;;;12.50;100.00
6680;BME280;3376;42.664;23.346;2023-05-01T05:02:35;94627.06;;;12.69;100.00
6680;BME280;3376;42.664;23.346;2023-05-01T05:05:02;94633.59;;;12.86;100.00
6680;BME280;3376;42.664;23.346;2023-05-01T05:07:29;94627.53;;;13.00;100.00
6680;BME280;3376;42.664;23.346;2023-05-01T05:09:55;94637.56;;;13.25;100.00
6680;BME280;3376;42.664;23.346;2023-05-01T05:12:22;94644.47;;;13.39;100.00
6680;BME280;3376;42.664;23.346;2023-05-01T05:14:49;94626.00;;;13.34;100.00
6680;BME280;3376;42.664;23.346;2023-05-01T05:17:17;94648.16;;;13.51;100.00
6680;BME280;3376;42.664;23.346;2023-05-01T05:19:44;94641.72;;;13.47;100.00
6680;BME280;3376;42.664;23.346;2023-05-01T05:22:11;94655.69;;;13.67;100.00
6680;BME280;3376;42.664;23.346;2023-05-01T05:24:37;94660.72;;;13.75;99.51
6680;BME280;3376;42.664;23.346;2023-05-01T05:27:04;94658.50;;;13.72;97.66
6680;BME280;3376;42.664;23.346;2023-05-01T05:29:31;94669.84;;;13.92;98.80
6680;BME280;3376;42.664;23.346;2023-05-01T05:31:59;94666.53;;;14.11;97.34
6680;BME280;3376;42.664;23.346;2023-05-01T05:34:27;94666.97;;;14.21;97.13
6680;BME280;3376;42.664;23.346;2023-05-01T05:36:54;94665.94;;;14.43;95.75
6680;BME280;3376;42.664;23.346;2023-05-01T05:39:21;94666.88;;;14.29;93.70
6680;BME280;3376;42.664;23.346;2023-05-01T05:41:48;94669.28;;;14.31;94.70
6680;BME280;3376;42.664;23.346;2023-05-01T05:44:14;94653.44;;;14.32;93.82
6680;BME280;3376;42.664;23.346;2023-05-01T05:46:41;94665.97;;;14.56;93.77
6680;BME280;3376;42.664;23.346;2023-05-01T05:49:08;94677.22;;;14.70;90.94
6680;BME280;3376;42.664;23.346;2023-05-01T05:51:36;94678.28;;;14.88;90.87
6680;BME280;3376;42.664;23.346;2023-05-01T05:54:03;94678.06;;;14.90;89.77
6680;BME280;3376;42.664;23.346;2023-05-01T05:56:30;94679.34;;;15.20;90.51
6680;BME280;3376;42.664;23.346;2023-05-01T05:58:56;94680.56;;;15.37;89.23
6680;BME280;3376;42.664;23.346;2023-05-01T06:01:27;94660.44;;;15.38;87.36
6680;BME280;3376;42.664;23.346;2023-05-01T06:03:54;94684.56;;;15.72;86.85
6680;BME280;3376;42.664;23.346;2023-05-01T06:06:21;94685.34;;;15.92;85.16
6680;BME280;3376;42.664;23.346;2023-05-01T06:08:49;94688.16;;;16.04;83.81
6680;BME280;3376;42.664;23.346;2023-05-01T06:11:16;94669.09;;;15.90;83.17
6680;BME280;3376;42.664;23.346;2023-05-01T06:13:43;94689.31;;;16.08;81.97
6680;BME280;3376;42.664;23.346;2023-05-01T06:16:09;94684.28;;;16.13;82.95
6680;BME280;3376;42.664;23.346;2023-05-01T06:18:36;94693.94;;;16.19;80.84
6680;BME280;3376;42.664;23.346;2023-05-01T06:21:03;94693.91;;;16.25;80.86
6680;BME280;3376;42.664;23.346;2023-05-01T06:23:30;94704.75;;;16.49;79.86
6680;BME280;3376;42.664;23.346;2023-05-01T06:25:59;94694.00;;;16.63;78.77
6680;BME280;3376;42.664;23.346;2023-05-01T06:28:26;94699.84;;;16.65;77.30
6680;BME280;3376;42.664;23.346;2023-05-01T06:30:53;94702.66;;;16.64;77.41
6680;BME280;3376;42.664;23.346;2023-05-01T06:33:20;94696.88;;;16.93;77.55
6680;BME280;3376;42.664;23.346;2023-05-01T06:35:47;94699.38;;;17.19;76.90
6680;BME280;3376;42.664;23.346;2023-05-01T06:38:14;94700.66;;;17.34;73.67
6680;BME280;3376;42.664;23.346;2023-05-01T06:40:41;94698.44;;;17.38;74.04
6680;BME280;3376;42.664;23.346;2023-05-01T06:43:09;94676.94;;;17.29;74.71
6680;BME280;3376;42.664;23.346;2023-05-01T06:45:35;94701.19;;;17.49;74.15
6680;BME280;3376;42.664;23.346;2023-05-01T06:48:04;94697.91;;;17.54;72.88
6680;BME280;3376;42.664;23.346;2023-05-01T06:50:31;94693.06;;;17.57;72.97
6680;BME280;3376;42.664;23.346;2023-05-01T06:52:58;94702.34;;;17.78;70.68
6680;BME280;3376;42.664;23.346;2023-05-01T06:55:27;94699.78;;;17.96;71.34
6680;BME280;3376;42.664;23.346;2023-05-01T06:57:55;94710.38;;;18.26;69.34
6680;BME280;3376;42.664;23.346;2023-05-01T07:00:23;94702.69;;;18.49;67.34
6680;BME280;3376;42.664;23.346;2023-05-01T07:02:50;94713.44;;;18.77;67.53
6680;BME280;3376;42.664;23.346;2023-05-01T07:05:17;94715.38;;;19.00;65.78
6680;BME280;3376;42.664;23.346;2023-05-01T07:07:44;94709.50;;;18.86;64.60
6680;BME280;3376;42.664;23.346;2023-05-01T07:10:10;94705.34;;;18.97;67.87
6680;BME280;3376;42.664;23.346;2023-05-01T07:12:37;94705.06;;;19.16;63.20
6680;BME280;3376;42.664;23.346;2023-05-01T07:15:05;94711.34;;;19.45;62.62
6680;BME280;3376;42.664;23.346;2023-05-01T07:17:33;94717.22;;;19.81;61.05
6680;BME280;3376;42.664;23.346;2023-05-01T07:20:00;94703.66;;;19.84;59.38
6680;BME280;3376;42.664;23.346;2023-05-01T07:22:29;94706.28;;;19.84;60.36
6680;BME280;3376;42.664;23.346;2023-05-01T07:24:56;94711.84;;;19.76;62.07
6680;BME280;3376;42.664;23.346;2023-05-01T07:27:22;94709.03;;;19.89;60.14
6680;BME280;3376;42.664;23.346;2023-05-01T07:29:49;94707.88;;;19.85;60.11
6680;BME280;3376;42.664;23.346;2023-05-01T07:32:16;94712.13;;;19.98;60.21
6680;BME280;3376;42.664;23.346;2023-05-01T07:34:44;94710.28;;;19.99;60.70
6680;BME280;3376;42.664;23.346;2023-05-01T07:37:11;94700.91;;;19.79;59.80
6680;BME280;3376;42.664;23.346;2023-05-01T07:39:38;94705.25;;;19.97;59.59
6680;BME280;3376;42.664;23.346;2023-05-01T07:42:05;94706.75;;;19.93;60.47
6680;BME280;3376;42.664;23.346;2023-05-01T07:44:32;94704.34;;;20.03;59.23
6680;BME280;3376;42.664;23.346;2023-05-01T07:47:01;94711.78;;;20.06;58.03
6680;BME280;3376;42.664;23.346;2023-05-01T07:49:28;94695.19;;;19.94;58.24
6680;BME280;3376;42.664;23.346;2023-05-01T07:51:56;94705.41;;;20.25;58.28
6680;BME280;3376;42.664;23.346;2023-05-01T07:54:23;94690.84;;;20.23;59.43
6680;BME280;3376;42.664;23.346;2023-05-01T07:56:50;94703.28;;;20.62;58.29
6680;BME280;3376;42.664;23.346;2023-05-01T07:59:17;94697.69;;;20.98;56.16
6680;BME280;3376;42.664;23.346;2023-05-01T08:01:43;94708.31;;;21.15;55.36
6680;BME280;3376;42.664;23.346;2023-05-01T08:04:10;94700.09;;;21.28;55.02
6680;BME280;3376;42.664;23.346;2023-05-01T08:06:38;94704.47;;;21.50;54.07
6680;BME280;3376;42.664;23.346;2023-05-01T08:09:06;94703.69;;;21.66;52.83
6680;BME280;3376;42.664;23.346;2023-05-01T08:11:34;94696.97;;;21.75;51.76
6680;BME280;3376;42.664;23.346;2023-05-01T08:14:01;94709.63;;;21.90;50.25
6680;BME280;3376;42.664;23.346;2023-05-01T08:16:28;94711.22;;;22.07;51.78
6680;BME280;3376;42.664;23.346;2023-05-01T08:18:54;94701.28;;;22.31;49.49
6680;BME280;3376;42.664;23.346;2023-05-01T08:21:21;94704.44;;;22.50;48.83
6680;BME280;3376;42.664;23.346;2023-05-01T08:23:48;94704.25;;;22.73;47.28
6680;BME280;3376;42.664;23.346;2023-05-01T08:26:17;94712.03;;;23.06;46.22
6680;BME280;3376;42.664;23.346;2023-05-01T08:28:44;94699.34;;;23.08;44.14
6680;BME280;3376;42.664;23.346;2023-05-01T08:31:12;94690.50;;;23.19;43.36
6680;BME280;3376;42.664;23.346;2023-05-01T08:33:38;94707.28;;;23.08;42.38
6680;BME280;3376;42.664;23.346;2023-05-01T08:36:08;94701.53;;;22.89;42.19
6680;BME280;3376;42.664;23.346;2023-05-01T08:38:35;94709.44;;;22.68;42.14
6680;BME280;3376;42.664;23.346;2023-05-01T08:41:02;94706.31;;;22.71;42.86
6680;BME280;3376;42.664;23.346;2023-05-01T08:43:31;94706.78;;;22.68;42.52
6680;BME280;3376;42.664;23.346;2023-05-01T08:45:58;94702.91;;;22.97;42.43
6680;BME280;3376;42.664;23.346;2023-05-01T08:48:28;94702.91;;;22.97;43.07
6680;BME280;3376;42.664;23.346;2023-05-01T08:50:56;94675.06;;;22.84;44.16
6680;BME280;3376;42.664;23.346;2023-05-01T08:53:24;94699.25;;;22.98;43.10
6680;BME280;3376;42.664;23.346;2023-05-01T08:55:52;94700.47;;;23.12;42.78
6680;BME280;3376;42.664;23.346;2023-05-01T08:58:22;94692.00;;;23.37;42.81
6680;BME280;3376;42.664;23.346;2023-05-01T09:00:52;94696.63;;;23.46;42.06
6680;BME280;3376;42.664;23.346;2023-05-01T09:03:21;94675.13;;;23.38;41.47
6680;BME280;3376;42.664;23.346;2023-05-01T09:05:48;94694.56;;;23.53;41.59
6680;BME280;3376;42.664;23.346;2023-05-01T09:08:15;94686.28;;;23.45;40.99
6680;BME280;3376;42.664;23.346;2023-05-01T09:10:44;94694.88;;;23.30;40.20
6680;BME280;3376;42.664;23.346;2023-05-01T09:13:11;94695.81;;;22.97;40.12
6680;BME280;3376;42.664;23.346;2023-05-01T09:15:38;94695.59;;;23.04;41.02
6680;BME280;3376;42.664;23.346;2023-05-01T09:18:07;94675.47;;;23.24;41.25
6680;BME280;3376;42.664;23.346;2023-05-01T09:20:35;94682.94;;;23.54;40.51
6680;BME280;3376;42.664;23.346;2023-05-01T09:23:03;94690.56;;;23.77;39.68
6680;BME280;3376;42.664;23.346;2023-05-01T09:25:30;94679.19;;;23.50;39.07
6680;BME280;3376;42.664;23.346;2023-05-01T09:27:57;94683.41;;;23.46;40.91
6680;BME280;3376;42.664;23.346;2023-05-01T09:30:31;94687.28;;;23.39;40.99
6680;BME280;3376;42.664;23.346;2023-05-01T09:33:10;94691.38;;;23.51;42.23
6680;BME280;3376;42.664;23.346;2023-05-01T09:35:51;94683.31;;;23.36;43.36
6680;BME280;3376;42.664;23.346;2023-05-01T09:38:20;94686.13;;;23.56;43.21
6680;BME280;3376;42.664;23.346;2023-05-01T09:40:47;94678.94;;;23.52;43.73
6680;BME280;3376;42.664;23.346;2023-05-01T09:43:23;94613.03;;;22.92;42.89
6680;BME280;3376;42.664;23.346;2023-05-01T09:46:00;94689.16;;;23.16;44.40
6680;BME280;3376;42.664;23.346;2023-05-01T09:48:29;94680.69;;;23.41;43.90
6680;BME280;3376;42.664;23.346;2023-05-01T09:50:56;94683.28;;;23.63;42.93
6680;BME280;3376;42.664;23.346;2023-05-01T09:53:35;94687.94;;;23.82;42.69
6680;BME280;3376;42.664;23.346;2023-05-01T09:56:03;94686.31;;;23.81;41.40
6680;BME280;3376;42.664;23.346;2023-05-01T09:58:31;94672.75;;;23.99;42.02
6680;BME280;3376;42.664;23.346;2023-05-01T10:00:58;94681.59;;;24.15;42.05
6680;BME280;3376;42.664;23.346;2023-05-01T10:03:25;94668.75;;;24.38;41.06
6680;BME280;3376;42.664;23.346;2023-05-01T10:05:53;94677.88;;;24.63;39.94
6680;BME280;3376;42.664;23.346;2023-05-01T10:08:21;94675.56;;;24.71;39.95
6680;BME280;3376;42.664;23.346;2023-05-01T10:10:59;94675.31;;;24.31;39.45
6680;BME280;3376;42.664;23.346;2023-05-01T10:13:28;94672.13;;;23.92;40.12
6680;BME280;3376;42.664;23.346;2023-05-01T10:15:55;94675.66;;;23.71;41.03
6680;BME280;3376;42.664;23.346;2023-05-01T10:18:22;94673.06;;;23.76;40.72
6680;BME280;3376;42.664;23.346;2023-05-01T10:20:50;94660.75;;;23.92;40.08
6680;BME280;3376;42.664;23.346;2023-05-01T10:23:18;94677.13;;;24.25;38.88
6680;BME280;3376;42.664;23.346;2023-05-01T10:25:46;94665.53;;;24.31;39.05
6680;BME280;3376;42.664;23.346;2023-05-01T10:28:13;94675.59;;;24.29;37.35
6680;BME280;3376;42.664;23.346;2023-05-01T10:30:41;94662.81;;;24.16;37.24
6680;BME280;3376;42.664;23.346;2023-05-01T10:33:11;94668.88;;;23.80;39.98
6680;BME280;3376;42.664;23.346;2023-05-01T10:35:39;94661.03;;;23.95;40.41
6680;BME280;3376;42.664;23.346;2023-05-01T10:38:22;94674.41;;;24.10;38.95
6680;BME280;3376;42.664;23.346;2023-05-01T10:40:52;94665.88;;;24.50;36.62
6680;BME280;3376;42.664;23.346;2023-05-01T10:43:21;94665.94;;;24.60;36.42
6680;BME280;3376;42.664;23.346;2023-05-01T10:45:53;94670.63;;;24.43;36.95
6680;BME280;3376;42.664;23.346;2023-05-01T10:48:51;94658.34;;;24.22;42.20
6680;BME280;3376;42.664;23.346;2023-05-01T10:51:20;94661.22;;;24.20;38.47
6680;BME280;3376;42.664;23.346;2023-05-01T10:53:48;94661.47;;;23.82;40.34
6680;BME280;3376;42.664;23.346;2023-05-01T10:56:41;94657.78;;;23.52;42.94
6680;BME280;3376;42.664;23.346;2023-05-01T10:59:08;94665.78;;;23.30;39.69
6680;BME280;3376;42.664;23.346;2023-05-01T11:01:37;94672.97;;;23.13;39.59
6680;BME280;3376;42.664;23.346;2023-05-01T11:04:06;94604.69;;;22.35;42.79
6680;BME280;3376;42.664;23.346;2023-05-01T11:06:34;94664.97;;;22.60;42.04
6680;BME280;3376;42.664;23.346;2023-05-01T11:09:37;94669.41;;;22.38;42.62
6680;BME280;3376;42.664;23.346;2023-05-01T11:12:08;94659.41;;;22.01;43.82
6680;BME280;3376;42.664;23.346;2023-05-01T11:15:00;94668.75;;;21.92;43.74
6680;BME280;3376;42.664;23.346;2023-05-01T11:17:52;94665.41;;;21.97;42.81
6680;BME280;3376;42.664;23.346;2023-05-01T11:20:45;94673.00;;;22.10;41.45
6680;BME280;3376;42.664;23.346;2023-05-01T11:23:19;94670.78;;;21.85;42.03
6680;BME280;3376;42.664;23.346;2023-05-01T11:25:46;94660.38;;;21.95;41.11
6680;BME280;3376;42.664;23.346;2023-05-01T11:28:18;94661.72;;;21.98;41.87
6680;BME280;3376;42.664;23.346;2023-05-01T11:30:47;94667.97;;;21.92;41.66
6680;BME280;3376;42.664;23.346;2023-05-01T11:33:21;94658.44;;;21.74;42.42
6680;BME280;3376;42.664;23.346;2023-05-01T11:35:59;94656.22;;;21.83;42.56
6680;BME280;3376;42.664;23.346;2023-05-01T11:38:26;94662.88;;;21.85;42.35
6680;BME280;3376;42.664;23.346;2023-05-01T11:40:55;94650.22;;;21.87;42.44
6680;BME280;3376;42.664;23.346;2023-05-01T11:43:24;94657.75;;;21.95;41.84
6680;BME280;3376;42.664;23.346;2023-05-01T11:45:51;94660.84;;;22.09;41.84
6680;BME280;3376;42.664;23.346;2023-05-01T11:48:20;94657.09;;;22.27;41.76
6680;BME280;3376;42.664;23.346;2023-05-01T11:50:47;94662.97;;;22.50;41.21
6680;BME280;3376;42.664;23.346;2023-05-01T11:53:15;94663.78;;;22.94;39.70
6680;BME280;3376;42.664;23.346;2023-05-01T11:55:42;94647.19;;;23.25;39.27
6680;BME280;3376;42.664;23.346;2023-05-01T11:58:08;94661.69;;;23.44;38.54
6680;BME280;3376;42.664;23.346;2023-05-01T12:00:38;94676.50;;;23.45;37.66
6680;BME280;3376;42.664;23.346;2023-05-01T12:03:07;94617.66;;;22.80;38.96
6680;BME280;3376;42.664;23.346;2023-05-01T12:05:36;94648.09;;;23.09;38.44
6680;BME280;3376;42.664;23.346;2023-05-01T12:08:11;94670.59;;;23.11;39.48
6680;BME280;3376;42.664;23.346;2023-05-01T12:10:40;94662.75;;;22.95;37.44
6680;BME280;3376;42.664;23.346;2023-05-01T12:13:08;94672.41;;;22.63;37.54
6680;BME280;3376;42.664;23.346;2023-05-01T12:15:39;94680.69;;;22.71;38.16
6680;BME280;3376;42.664;23.346;2023-05-01T12:18:07;94673.88;;;22.54;37.28
6680;BME280;3376;42.664;23.346;2023-05-01T12:20:37;94673.38;;;22.18;36.79
6680;BME280;3376;42.664;23.346;2023-05-01T12:23:06;94683.13;;;21.68;38.66
6680;BME280;3376;42.664;23.346;2023-05-01T12:25:34;94694.75;;;21.39;38.79
6680;BME280;3376;42.664;23.346;2023-05-01T12:28:06;94676.94;;;21.13;39.11
6680;BME280;3376;42.664;23.346;2023-05-01T12:30:34;94688.88;;;21.04;39.28
6680;BME280;3376;42.664;23.346;2023-05-01T12:33:08;94678.03;;;21.17;40.48
6680;BME280;3376;42.664;23.346;2023-05-01T12:35:36;94654.72;;;21.09;39.22
6680;BME280;3376;42.664;23.346;2023-05-01T12:38:10;94678.03;;;21.17;39.58
6680;BME280;3376;42.664;23.346;2023-05-01T12:40:38;94631.94;;;20.75;38.84
6680;BME280;3376;42.664;23.346;2023-05-01T12:43:06;94671.16;;;21.16;38.42
6680;BME280;3376;42.664;23.346;2023-05-01T12:45:39;94678.00;;;21.00;40.06
6680;BME280;3376;42.664;23.346;2023-05-01T12:48:12;94676.78;;;21.20;42.61
6680;BME280;3376;42.664;23.346;2023-05-01T12:50:40;94679.00;;;21.28;43.54
6680;BME280;3376;42.664;23.346;2023-05-01T12:53:08;94674.13;;;21.64;40.75
6680;BME280;3376;42.664;23.346;2023-05-01T12:55:42;94674.28;;;21.74;40.67
6680;BME280;3376;42.664;23.346;2023-05-01T12:58:11;94676.75;;;21.97;41.28
6680;BME280;3376;42.664;23.346;2023-05-01T13:00:42;94668.50;;;22.10;39.82
6680;BME280;3376;42.664;23.346;2023-05-01T13:03:09;94653.38;;;22.06;40.51
6680;BME280;3376;42.664;23.346;2023-05-01T13:05:49;94667.38;;;22.23;40.58
6680;BME280;3376;42.664;23.346;2023-05-01T13:08:24;94671.28;;;22.21;39.90
6680;BME280;3376;42.664;23.346;2023-05-01T13:10:52;94677.69;;;22.25;39.27
6680;BME280;3376;42.664;23.346;2023-05-01T13:13:23;94684.56;;;22.26;39.05
6680;BME280;3376;42.664;23.346;2023-05-01T13:15:50;94674.91;;;21.98;38.76
6680;BME280;3376;42.664;23.346;2023-05-01T13:18:17;94670.75;;;21.69;40.59